createdAt,value
2023-01-21T00:02:15.278Z,11.30
2023-01-21T00:04:48.522Z,10.50
2023-01-21T00:07:21.073Z,11.70
2023-01-21T00:09:53.432Z,9.70
2023-01-21T00:12:26.142Z,11.40
2023-01-21T00:14:58.874Z,10.50
2023-01-21T00:17:35.681Z,10.50
2023-01-21T00:20:10.333Z,8.90
2023-01-21T00:22:43.763Z,8.90
2023-01-21T00:25:17.103Z,11.30
2023-01-21T00:27:49.841Z,11.20
2023-01-21T00:30:24.752Z,11.10
2023-01-21T00:32:57.113Z,8.40
2023-01-21T00:35:29.683Z,9.70
2023-01-21T00:38:02.083Z,9.40
2023-01-21T00:40:34.654Z,11.60
2023-01-21T00:43:07.327Z,7.90
2023-01-21T00:45:40.079Z,10.60
2023-01-21T00:48:12.919Z,9.30
2023-01-21T00:50:45.441Z,9.30
2023-01-21T00:53:18.196Z,10.30
2023-01-21T00:55:51.033Z,10.00
2023-01-21T00:58:23.584Z,7.80
2023-01-21T01:01:04.266Z,10.10
2023-01-21T01:03:37.371Z,9.00
2023-01-21T01:06:13.440Z,10.20
2023-01-21T01:08:46.796Z,10.30
2023-01-21T01:11:21.880Z,9.40
2023-01-21T01:13:54.755Z,10.10
2023-01-21T01:16:27.933Z,9.50
2023-01-21T01:19:00.290Z,10.90
2023-01-21T01:21:33.480Z,9.30
2023-01-21T01:24:07.402Z,9.60
2023-01-21T01:26:42.386Z,7.60
2023-01-21T01:29:16.631Z,9.40
2023-01-21T01:31:49.363Z,11.50
2023-01-21T01:34:35.093Z,7.90
2023-01-21T01:37:08.186Z,8.00
2023-01-21T01:39:40.625Z,6.60
2023-01-21T01:42:17.871Z,7.50
2023-01-21T01:45:08.360Z,6.90
2023-01-21T01:47:46.063Z,8.40
2023-01-21T01:50:21.942Z,8.50
2023-01-21T01:52:54.764Z,6.90
2023-01-21T01:55:29.286Z,9.00
2023-01-21T01:58:03.925Z,8.00
2023-01-21T02:00:36.812Z,6.30
2023-01-21T02:03:27.245Z,6.40
2023-01-21T02:05:59.825Z,7.50
2023-01-21T02:08:36.530Z,10.30
2023-01-21T02:11:15.167Z,7.90
2023-01-21T02:13:51.605Z,7.00
2023-01-21T02:16:49.806Z,6.80
2023-01-21T02:19:52.407Z,6.80
2023-01-21T02:22:32.247Z,7.10
2023-01-21T02:25:58.376Z,7.50
2023-01-21T02:29:10.402Z,7.20
2023-01-21T02:32:24.864Z,7.20
2023-01-21T02:35:07.145Z,7.10
2023-01-21T02:37:43.805Z,7.40
2023-01-21T02:40:22.780Z,5.60
2023-01-21T02:43:04.011Z,6.20
2023-01-21T02:45:44.268Z,5.90
2023-01-21T02:48:22.340Z,5.80
2023-01-21T02:50:56.340Z,6.70
2023-01-21T02:53:31.423Z,7.20
2023-01-21T02:56:08.261Z,5.40
2023-01-21T02:58:45.053Z,7.10
2023-01-21T03:01:28.525Z,6.20
2023-01-21T03:04:33.352Z,5.40
2023-01-21T03:07:13.094Z,5.90
2023-01-21T03:09:45.845Z,6.80
2023-01-21T03:12:30.857Z,5.80
2023-01-21T03:15:27.903Z,6.10
2023-01-21T03:18:06.783Z,6.50
2023-01-21T03:20:44.597Z,6.70
2023-01-21T03:23:24.124Z,5.90
2023-01-21T03:25:58.206Z,5.70
2023-01-21T03:28:36.665Z,7.80
2023-01-21T03:31:14.208Z,6.80
2023-01-21T03:33:50.425Z,5.10
2023-01-21T03:36:28.889Z,6.90
2023-01-21T03:39:09.394Z,6.20
2023-01-21T03:41:43.330Z,6.20
2023-01-21T03:44:15.834Z,6.30
2023-01-21T03:46:58.434Z,7.60
2023-01-21T03:49:36.696Z,6.00
2023-01-21T03:52:11.665Z,5.30
2023-01-21T03:54:44.266Z,5.80
2023-01-21T03:57:17.199Z,6.10
2023-01-21T03:59:52.100Z,6.20
2023-01-21T04:02:24.879Z,6.50
2023-01-21T04:04:57.546Z,6.60
2023-01-21T04:07:30.128Z,5.20
2023-01-21T04:10:02.582Z,5.70
2023-01-21T04:12:35.176Z,6.20
2023-01-21T04:15:09.276Z,6.90
2023-01-21T04:17:43.646Z,6.30
2023-01-21T04:20:17.114Z,6.20
2023-01-21T04:25:20.957Z,5.40
2023-01-21T04:27:53.526Z,7.10
2023-01-21T04:30:26.306Z,6.60
2023-01-21T04:32:58.955Z,4.00
2023-01-21T04:35:31.965Z,4.20
2023-01-21T04:38:06.237Z,5.70
2023-01-21T04:40:39.046Z,6.30
2023-01-21T04:43:11.949Z,5.90
2023-01-21T04:45:44.365Z,7.40
2023-01-21T04:48:17.018Z,5.30
2023-01-21T04:50:49.648Z,5.90
2023-01-21T04:53:22.203Z,4.30
2023-01-21T04:55:56.297Z,5.30
2023-01-21T04:58:29.086Z,5.40
2023-01-21T05:01:01.757Z,6.40
2023-01-21T05:03:34.399Z,4.80
2023-01-21T05:06:08.597Z,5.20
2023-01-21T05:08:41.207Z,5.10
2023-01-21T05:11:22.456Z,6.90
2023-01-21T05:13:55.209Z,5.30
2023-01-21T05:16:27.918Z,6.50
2023-01-21T05:19:02.011Z,4.80
2023-01-21T05:21:34.576Z,5.50
2023-01-21T05:24:08.038Z,6.00
2023-01-21T05:26:40.509Z,6.10
2023-01-21T05:29:14.035Z,5.20
2023-01-21T05:31:46.760Z,5.10
2023-01-21T05:34:19.376Z,5.00
2023-01-21T05:36:52.006Z,4.50
2023-01-21T05:39:24.705Z,4.90
2023-01-21T05:41:57.286Z,5.50
2023-01-21T05:44:29.790Z,4.90
2023-01-21T05:47:02.277Z,5.40
2023-01-21T05:49:35.164Z,5.10
2023-01-21T05:52:10.049Z,4.00
2023-01-21T05:54:59.919Z,4.80
2023-01-21T05:57:34.387Z,5.10
2023-01-21T06:00:08.445Z,7.00
2023-01-21T06:02:41.329Z,5.50
2023-01-21T06:05:14.175Z,5.90
2023-01-21T06:07:46.690Z,3.90
2023-01-21T06:10:20.872Z,5.20
2023-01-21T06:12:54.837Z,6.00
2023-01-21T06:15:27.999Z,5.00
2023-01-21T06:18:00.444Z,3.80
2023-01-21T06:20:33.166Z,4.50
2023-01-21T06:23:06.888Z,5.70
2023-01-21T06:28:10.822Z,4.70
2023-01-21T06:30:43.545Z,4.40
2023-01-21T06:33:16.184Z,4.30
2023-01-21T06:35:49.175Z,4.60
2023-01-21T06:38:21.665Z,4.00
2023-01-21T06:40:54.303Z,5.00
2023-01-21T06:43:26.900Z,5.30
2023-01-21T06:45:59.509Z,4.00
2023-01-21T06:48:32.357Z,5.30
2023-01-21T06:51:05.489Z,5.20
2023-01-21T06:53:38.015Z,4.70
2023-01-21T06:56:11.435Z,4.80
2023-01-21T06:58:43.965Z,4.50
2023-01-21T07:01:17.110Z,4.00
2023-01-21T07:03:49.611Z,4.30
2023-01-21T07:06:23.252Z,5.20
2023-01-21T07:08:55.651Z,4.50
2023-01-21T07:11:28.423Z,4.60
2023-01-21T07:14:01.000Z,4.80
2023-01-21T07:16:33.685Z,3.30
2023-01-21T07:19:06.470Z,4.50
2023-01-21T07:21:41.645Z,3.30
2023-01-21T07:24:14.247Z,26.40
2023-01-21T07:26:46.830Z,16.50
2023-01-21T07:29:19.766Z,21.60
2023-01-21T07:31:52.470Z,13.90
2023-01-21T07:34:25.351Z,14.40
2023-01-21T07:36:58.559Z,8.00
2023-01-21T07:39:31.011Z,5.70
2023-01-21T07:42:03.777Z,8.30
2023-01-21T07:44:36.264Z,5.90
2023-01-21T07:47:10.824Z,4.50
2023-01-21T07:49:43.536Z,5.60
2023-01-21T07:52:16.089Z,6.20
2023-01-21T07:54:49.056Z,3.60
2023-01-21T07:57:22.068Z,4.50
2023-01-21T07:59:54.849Z,5.60
2023-01-21T08:02:28.477Z,9.20
2023-01-21T08:05:01.226Z,6.50
2023-01-21T08:07:34.107Z,4.60
2023-01-21T08:10:07.546Z,5.30
2023-01-21T08:12:42.226Z,4.90
2023-01-21T08:15:16.892Z,4.30
2023-01-21T08:17:49.967Z,3.80
2023-01-21T08:20:24.384Z,4.00
2023-01-21T08:23:00.790Z,3.70
2023-01-21T08:25:33.725Z,3.30
2023-01-21T08:28:06.717Z,3.90
2023-01-21T08:30:39.752Z,5.30
2023-01-21T08:33:12.497Z,4.20
2023-01-21T08:35:45.512Z,4.60
2023-01-21T08:38:18.144Z,4.40
2023-01-21T08:40:50.495Z,3.80
2023-01-21T08:43:23.118Z,4.20
2023-01-21T08:45:57.870Z,4.80
2023-01-21T08:48:31.145Z,3.40
2023-01-21T08:51:04.136Z,3.60
2023-01-21T08:53:36.709Z,3.70
2023-01-21T08:56:10.626Z,4.90
2023-01-21T08:58:43.266Z,5.10
2023-01-21T09:01:18.065Z,5.30
2023-01-21T09:03:50.688Z,4.20
2023-01-21T09:06:23.199Z,3.90
2023-01-21T09:08:56.445Z,4.30
2023-01-21T09:11:31.295Z,3.80
2023-01-21T09:14:04.547Z,4.30
2023-01-21T09:16:38.019Z,6.00
2023-01-21T09:19:11.432Z,4.80
2023-01-21T09:21:43.889Z,4.70
2023-01-21T09:24:16.419Z,4.90
2023-01-21T09:26:49.315Z,3.90
2023-01-21T09:29:22.315Z,4.30
2023-01-21T09:31:55.181Z,4.50
2023-01-21T09:34:29.925Z,5.70
2023-01-21T09:37:03.385Z,5.80
2023-01-21T09:39:35.916Z,5.40
2023-01-21T09:42:18.535Z,5.30
2023-01-21T09:44:55.384Z,5.00
2023-01-21T09:47:33.008Z,6.40
2023-01-21T09:50:09.555Z,4.70
2023-01-21T09:52:44.707Z,5.60
2023-01-21T09:55:20.905Z,5.60
2023-01-21T09:58:15.735Z,4.80
2023-01-21T10:00:51.699Z,5.40
2023-01-21T10:03:31.160Z,6.30
2023-01-21T10:06:17.678Z,5.50
2023-01-21T10:09:08.610Z,5.30
2023-01-21T10:11:56.356Z,4.60
2023-01-21T10:14:51.185Z,5.90
2023-01-21T10:17:35.116Z,6.60
2023-01-21T10:20:16.847Z,6.60
2023-01-21T10:22:55.300Z,6.50
2023-01-21T10:25:32.368Z,6.20
2023-01-21T10:28:11.066Z,6.40
2023-01-21T10:30:47.599Z,5.30
2023-01-21T10:33:22.649Z,4.70
2023-01-21T10:36:24.635Z,3.50
2023-01-21T10:39:09.357Z,3.70
2023-01-21T10:41:57.546Z,4.50
2023-01-21T10:44:40.075Z,10.50
2023-01-21T10:47:22.348Z,10.60
2023-01-21T10:50:02.192Z,8.00
2023-01-21T10:52:40.408Z,5.10
2023-01-21T10:55:24.212Z,4.80
2023-01-21T10:58:04.025Z,3.40
2023-01-21T11:00:44.849Z,5.10
2023-01-21T11:03:29.951Z,4.60
2023-01-21T11:06:04.743Z,33.70
2023-01-21T11:08:37.505Z,32.90
2023-01-21T11:11:13.135Z,44.80
2023-01-21T11:13:45.853Z,57.30
2023-01-21T11:16:35.754Z,35.70
2023-01-21T11:19:13.518Z,32.40
2023-01-21T11:22:02.964Z,34.50
2023-01-21T11:24:44.646Z,27.70
2023-01-21T11:27:32.965Z,31.40
2023-01-21T11:30:19.571Z,28.80
2023-01-21T11:33:15.114Z,36.90
2023-01-21T11:35:47.814Z,44.80
2023-01-21T11:38:36.931Z,30.50
2023-01-21T11:41:18.540Z,23.00
2023-01-21T11:43:53.049Z,10.00
2023-01-21T11:46:36.415Z,8.50
2023-01-21T11:49:30.298Z,7.70
2023-01-21T11:52:17.994Z,6.90
2023-01-21T11:54:51.242Z,10.30
2023-01-21T11:57:31.740Z,10.50
2023-01-21T12:00:23.013Z,17.30
2023-01-21T12:02:59.354Z,18.40
2023-01-21T12:05:38.386Z,15.30
2023-01-21T12:08:17.824Z,28.80
2023-01-21T12:10:51.808Z,21.70
2023-01-21T12:13:32.365Z,17.70
2023-01-21T12:16:29.874Z,16.10
2023-01-21T12:19:25.345Z,21.20
2023-01-21T12:22:24.217Z,28.80
2023-01-21T12:25:19.776Z,24.20
2023-01-21T12:28:05.260Z,21.20
2023-01-21T12:30:44.920Z,13.10
2023-01-21T12:33:23.108Z,12.60
2023-01-21T12:35:58.833Z,11.00
2023-01-21T12:38:37.075Z,11.30
2023-01-21T12:41:15.359Z,11.10
2023-01-21T12:43:52.138Z,8.70
2023-01-21T12:46:29.355Z,10.80
2023-01-21T12:49:10.682Z,9.40
2023-01-21T12:51:45.974Z,10.70
2023-01-21T12:54:23.235Z,10.90
2023-01-21T12:57:02.042Z,10.80
2023-01-21T12:59:40.298Z,11.90
2023-01-21T13:02:25.013Z,10.40
2023-01-21T13:05:03.513Z,11.30
2023-01-21T13:07:46.574Z,11.80
2023-01-21T13:10:26.648Z,11.20
2023-01-21T13:13:01.931Z,10.90
2023-01-21T13:15:37.415Z,10.70
2023-01-21T13:18:17.090Z,10.70
2023-01-21T13:20:54.607Z,11.10
2023-01-21T13:23:35.219Z,9.40
2023-01-21T13:26:16.516Z,9.70
2023-01-21T13:28:56.421Z,8.60
2023-01-21T13:31:34.722Z,11.00
2023-01-21T13:34:15.816Z,11.60
2023-01-21T13:37:02.824Z,11.00
2023-01-21T13:39:44.471Z,11.60
2023-01-21T13:42:38.712Z,12.40
2023-01-21T13:45:26.542Z,12.90
2023-01-21T13:48:10.495Z,14.30
2023-01-21T13:50:59.034Z,14.90
2023-01-21T13:53:51.329Z,17.50
2023-01-21T13:56:39.035Z,17.10
2023-01-21T13:59:19.349Z,22.10
2023-01-21T14:01:58.439Z,22.90
2023-01-21T14:04:35.075Z,20.50
2023-01-21T14:07:10.751Z,15.30
2023-01-21T14:09:49.336Z,17.50
2023-01-21T14:12:30.535Z,16.90
2023-01-21T14:15:23.273Z,21.80
2023-01-21T14:18:14.659Z,17.40
2023-01-21T14:21:25.386Z,12.60
2023-01-21T14:24:13.825Z,15.10
2023-01-21T14:27:06.347Z,13.30
2023-01-21T14:29:45.626Z,21.40
2023-01-21T14:32:24.168Z,28.70
2023-01-21T14:35:11.375Z,32.90
2023-01-21T14:37:51.877Z,27.00
2023-01-21T14:40:30.855Z,31.80
2023-01-21T14:43:03.585Z,24.10
2023-01-21T14:45:57.752Z,20.00
2023-01-21T14:51:22.670Z,24.40
2023-01-21T14:54:00.032Z,22.90
2023-01-21T14:56:35.392Z,24.70
2023-01-21T14:59:10.356Z,22.80
2023-01-21T15:01:46.039Z,18.10
2023-01-21T15:04:29.636Z,20.00
2023-01-21T15:07:04.976Z,18.80
2023-01-21T15:09:43.396Z,17.90
2023-01-21T15:12:21.650Z,16.90
2023-01-21T15:14:58.996Z,19.70
2023-01-21T15:18:03.782Z,19.70
2023-01-21T15:20:50.062Z,20.10
2023-01-21T15:23:36.761Z,19.10
2023-01-21T15:26:34.080Z,19.80
2023-01-21T15:29:34.171Z,18.40
2023-01-21T15:32:36.293Z,22.70
2023-01-21T15:35:20.450Z,22.30
2023-01-21T15:38:01.267Z,20.10
2023-01-21T15:40:43.640Z,20.60
2023-01-21T15:43:25.106Z,20.90
2023-01-21T15:46:19.508Z,17.90
2023-01-21T15:49:05.876Z,22.40
2023-01-21T15:51:48.388Z,24.10
2023-01-21T15:54:32.121Z,29.20
2023-01-21T15:57:20.577Z,31.20
2023-01-21T16:00:10.094Z,26.50
2023-01-21T16:02:54.105Z,30.30
2023-01-21T16:05:35.747Z,25.20
2023-01-21T16:08:20.182Z,26.60
2023-01-21T16:11:04.131Z,28.60
2023-01-21T16:13:51.547Z,24.70
2023-01-21T16:16:37.261Z,26.90
2023-01-21T16:19:13.079Z,31.80
2023-01-21T16:21:50.577Z,24.70
2023-01-21T16:24:27.993Z,22.30
2023-01-21T16:27:20.443Z,25.40
2023-01-21T16:29:59.087Z,23.20
2023-01-21T16:32:32.780Z,26.50
2023-01-21T16:35:06.004Z,23.90
2023-01-21T16:37:39.718Z,26.80
2023-01-21T16:40:30.002Z,27.30
2023-01-21T16:43:23.108Z,27.80
2023-01-21T16:45:57.718Z,29.00
2023-01-21T16:48:32.747Z,30.20
2023-01-21T16:51:06.397Z,29.10
2023-01-21T16:53:39.372Z,31.70
2023-01-21T16:56:28.366Z,30.50
2023-01-21T16:59:01.302Z,31.00
2023-01-21T17:01:34.211Z,33.10
2023-01-21T17:04:07.494Z,35.40
2023-01-21T17:06:41.288Z,34.00
2023-01-21T17:09:27.056Z,35.50
2023-01-21T17:12:03.775Z,37.60
2023-01-21T17:14:38.962Z,34.80
2023-01-21T17:17:21.290Z,33.60
2023-01-21T17:19:54.438Z,31.20
2023-01-21T17:22:30.907Z,26.70
2023-01-21T17:25:09.441Z,39.20
2023-01-21T17:27:46.721Z,37.00
2023-01-21T17:30:32.282Z,39.60
2023-01-21T17:33:06.067Z,37.30
2023-01-21T17:35:38.821Z,43.10
2023-01-21T17:38:31.551Z,44.60
2023-01-21T17:41:09.930Z,45.90
2023-01-21T17:43:50.952Z,46.20
2023-01-21T17:46:24.366Z,49.50
2023-01-21T17:49:00.111Z,51.20
2023-01-21T17:51:33.873Z,44.90
2023-01-21T17:54:16.279Z,47.60
2023-01-21T17:56:53.363Z,45.20
2023-01-21T17:59:39.253Z,47.10
2023-01-21T18:02:14.707Z,46.30
2023-01-21T18:04:47.857Z,45.30
2023-01-21T18:07:26.381Z,44.50
2023-01-21T18:10:03.589Z,49.10
2023-01-21T18:12:36.363Z,54.00
2023-01-21T18:15:13.891Z,53.70
2023-01-21T18:17:49.170Z,58.60
2023-01-21T18:20:23.466Z,46.10
2023-01-21T18:22:57.267Z,49.20
2023-01-21T18:25:30.728Z,46.80
2023-01-21T18:28:03.468Z,51.90
2023-01-21T18:30:36.161Z,55.50
2023-01-21T18:33:09.130Z,58.70
2023-01-21T18:35:46.152Z,54.80
2023-01-21T18:38:27.859Z,57.80
2023-01-21T18:41:00.968Z,58.30
2023-01-21T18:43:34.149Z,59.10
2023-01-21T18:46:10.823Z,58.80
2023-01-21T18:48:43.790Z,51.30
2023-01-21T18:51:16.734Z,44.30
2023-01-21T18:53:49.435Z,63.10
2023-01-21T18:56:22.458Z,63.80
2023-01-21T18:58:55.328Z,74.20
2023-01-21T19:01:28.131Z,67.50
2023-01-21T19:04:00.748Z,92.50
2023-01-21T19:06:37.801Z,102.40
2023-01-21T19:09:22.577Z,89.00
2023-01-21T19:11:55.484Z,76.50
2023-01-21T19:14:30.903Z,64.90
2023-01-21T19:17:05.843Z,75.90
2023-01-21T19:19:41.219Z,78.20
2023-01-21T19:22:18.956Z,73.20
2023-01-21T19:24:52.627Z,78.00
2023-01-21T19:27:30.491Z,108.40
2023-01-21T19:30:03.596Z,110.00
2023-01-21T19:32:36.140Z,96.50
2023-01-21T19:35:10.259Z,109.70
2023-01-21T19:37:44.911Z,108.40
2023-01-21T19:40:21.011Z,117.60
2023-01-21T19:42:53.813Z,109.60
2023-01-21T19:45:28.989Z,103.50
2023-01-21T19:48:04.318Z,96.50
2023-01-21T19:50:40.318Z,109.50
2023-01-21T19:53:20.198Z,87.50
2023-01-21T19:55:53.807Z,79.80
2023-01-21T20:01:02.015Z,127.50
2023-01-21T20:03:34.946Z,111.30
2023-01-21T20:06:12.231Z,108.10
2023-01-21T20:08:49.605Z,113.10
2023-01-21T20:11:26.490Z,86.30
2023-01-21T20:14:01.953Z,81.00
2023-01-21T20:16:46.360Z,82.50
2023-01-21T20:19:21.660Z,86.00
2023-01-21T20:22:02.204Z,79.10
2023-01-21T20:24:35.749Z,76.90
2023-01-21T20:27:16.056Z,60.70
2023-01-21T20:30:02.473Z,78.70
2023-01-21T20:32:50.151Z,72.10
2023-01-21T20:35:39.692Z,81.40
2023-01-21T20:38:21.432Z,85.50
2023-01-21T20:40:54.147Z,86.00
2023-01-21T20:43:28.727Z,97.10
2023-01-21T20:46:04.792Z,87.20
2023-01-21T20:48:42.229Z,91.20
2023-01-21T20:51:17.755Z,79.70
2023-01-21T20:53:53.101Z,74.60
2023-01-21T20:56:33.086Z,69.80
2023-01-21T20:59:06.291Z,63.10
2023-01-21T21:04:13.240Z,68.60
2023-01-21T21:06:46.160Z,69.90
2023-01-21T21:09:20.673Z,69.30
2023-01-21T21:11:55.629Z,64.60
2023-01-21T21:17:01.328Z,61.00
2023-01-21T21:19:34.294Z,67.00
2023-01-21T21:22:07.040Z,64.60
2023-01-21T21:24:40.758Z,64.30
2023-01-21T21:27:14.925Z,61.50
2023-01-21T21:29:47.798Z,69.50
2023-01-21T21:32:22.930Z,68.60
2023-01-21T21:34:57.437Z,66.50
2023-01-21T21:37:30.027Z,64.10
2023-01-21T21:40:03.017Z,71.10
2023-01-21T21:42:57.354Z,68.20
2023-01-21T21:45:32.423Z,65.10
2023-01-21T21:48:23.229Z,64.80
2023-01-21T21:51:00.519Z,66.70
2023-01-21T21:53:35.108Z,71.40
2023-01-21T21:56:10.447Z,79.90
2023-01-21T21:58:43.697Z,68.00
2023-01-21T22:01:19.946Z,69.70
2023-01-21T22:03:53.568Z,75.70
2023-01-21T22:08:58.744Z,72.40
2023-01-21T22:11:32.950Z,74.70
2023-01-21T22:14:05.699Z,72.60
2023-01-21T22:16:38.487Z,73.80
2023-01-21T22:19:13.243Z,77.50
2023-01-21T22:21:45.707Z,80.00
2023-01-21T22:24:18.198Z,72.60
2023-01-21T22:26:51.550Z,80.70
2023-01-21T22:29:24.122Z,59.70
2023-01-21T22:31:56.600Z,77.90
2023-01-21T22:34:29.491Z,76.40
2023-01-21T22:37:03.728Z,82.00
2023-01-21T22:39:36.453Z,76.50
2023-01-21T22:42:10.596Z,75.30
2023-01-21T22:44:43.110Z,68.00
2023-01-21T22:47:15.774Z,70.40
2023-01-21T22:49:50.188Z,76.80
2023-01-21T22:52:25.826Z,78.00
2023-01-21T22:54:59.569Z,81.20
2023-01-21T23:00:03.063Z,78.80
2023-01-21T23:02:35.764Z,84.40
2023-01-21T23:05:09.587Z,85.90
2023-01-21T23:07:42.638Z,90.30
2023-01-21T23:10:17.609Z,87.10
2023-01-21T23:12:50.562Z,71.70
2023-01-21T23:15:24.177Z,73.50
2023-01-21T23:20:29.318Z,70.40
2023-01-21T23:23:02.472Z,74.20
2023-01-21T23:25:34.899Z,62.20
2023-01-21T23:28:09.591Z,72.30
2023-01-21T23:30:42.642Z,73.20
2023-01-21T23:33:16.638Z,54.40
2023-01-21T23:38:20.477Z,59.50
2023-01-21T23:40:53.352Z,63.50
2023-01-21T23:43:29.188Z,50.90
2023-01-21T23:46:02.427Z,59.70
2023-01-21T23:48:34.929Z,56.10
2023-01-21T23:51:12.532Z,54.30
2023-01-21T23:53:45.417Z,55.70
2023-01-21T23:56:19.943Z,57.80
2023-01-21T23:58:53.624Z,60.40
